Albany Township, Maine
Current Conditions -  °F | °C
As of 12:16 PM on Friday 21 Nov 2014 (Local Time) from KBML Reporting Station
Light Snow Light Snow  
Wind Chill: -11°   Ceiling: 3300
Heat Index: -4°   Visibility: 6mi
Dew Point: -12°   Wind: 13mph
Humidity: 57%   Direction: 300°WNW
Pressure: 30.02"   Gusts: 24mph
Location:  44.3718°N, 70.8421°W
Report Text: KBML 211716Z AUTO 30011G21KT 260V010 6SM -SN FEW027 BKN033 OVC040 M04/M12 A3002 RMK AO2 UPE1657SNB1657 P0000 T10441117
Loading
Personal Weather Stations






























Interactive Weather Map New forecast layout! Learn more

10-Day Weather Forecast

Advertisements
Track Severe Weather on mobile